createdAt,value
2023-05-03T00:01:01.570Z,47.60
2023-05-03T00:03:53.547Z,46.90
2023-05-03T00:06:44.221Z,48.00
2023-05-03T00:09:34.694Z,47.70
2023-05-03T00:12:23.341Z,47.50
2023-05-03T00:15:12.867Z,47.70
2023-05-03T00:18:03.052Z,46.90
2023-05-03T00:20:51.819Z,46.50
2023-05-03T00:23:40.482Z,46.80
2023-05-03T00:26:29.642Z,47.20
2023-05-03T00:29:19.070Z,48.30
2023-05-03T00:32:07.874Z,48.80
2023-05-03T00:34:58.407Z,48.50
2023-05-03T00:37:47.089Z,48.90
2023-05-03T00:40:35.826Z,49.80
2023-05-03T00:43:24.505Z,50.10
2023-05-03T00:46:17.427Z,51.10
2023-05-03T00:49:06.634Z,51.20
2023-05-03T00:51:59.366Z,50.90
2023-05-03T00:54:48.235Z,51.70
2023-05-03T00:57:36.970Z,52.20
2023-05-03T01:00:25.926Z,52.50
2023-05-03T01:03:15.184Z,51.30
2023-05-03T01:06:11.889Z,50.20
2023-05-03T01:09:06.641Z,50.70
2023-05-03T01:12:06.378Z,50.60
2023-05-03T01:15:04.143Z,48.40
2023-05-03T01:17:59.517Z,48.80
2023-05-03T01:20:49.895Z,49.20
2023-05-03T01:23:52.140Z,49.30
2023-05-03T01:26:42.303Z,50.30
2023-05-03T01:29:31.169Z,51.30
2023-05-03T01:32:28.021Z,51.20
2023-05-03T01:35:24.786Z,51.30
2023-05-03T01:38:14.535Z,52.20
2023-05-03T01:41:07.671Z,52.20
2023-05-03T01:43:59.744Z,52.70
2023-05-03T01:46:49.826Z,53.80
2023-05-03T01:49:38.625Z,55.00
2023-05-03T01:52:27.721Z,55.70
2023-05-03T01:55:16.509Z,56.70
2023-05-03T01:58:05.199Z,57.70
2023-05-03T02:00:55.630Z,58.00
2023-05-03T02:03:44.306Z,59.10
2023-05-03T02:06:33.081Z,59.70
2023-05-03T02:09:21.903Z,60.70
2023-05-03T02:12:11.565Z,61.40
2023-05-03T02:15:00.335Z,61.90
2023-05-03T02:17:51.061Z,61.90
2023-05-03T02:20:39.760Z,62.20
2023-05-03T02:23:28.433Z,63.50
2023-05-03T02:26:17.109Z,63.90
2023-05-03T02:29:07.480Z,64.00
2023-05-03T02:31:56.172Z,65.20
2023-05-03T02:34:50.090Z,66.80
2023-05-03T02:37:38.787Z,66.80
2023-05-03T02:40:27.515Z,67.20
2023-05-03T02:43:16.289Z,68.20
2023-05-03T02:46:05.600Z,70.60
2023-05-03T02:48:54.275Z,70.60
2023-05-03T02:51:44.382Z,71.10
2023-05-03T02:54:33.097Z,71.00
2023-05-03T02:57:21.748Z,71.00
2023-05-03T03:00:15.420Z,71.20
2023-05-03T03:03:04.337Z,72.20
2023-05-03T03:05:53.066Z,71.50
2023-05-03T03:08:43.133Z,71.50
2023-05-03T03:11:31.898Z,71.60
2023-05-03T03:14:20.603Z,72.40
2023-05-03T03:17:10.145Z,73.00
2023-05-03T03:19:59.571Z,74.00
2023-05-03T03:22:48.247Z,74.80
2023-05-03T03:25:38.364Z,73.60
2023-05-03T03:28:27.032Z,73.10
2023-05-03T03:31:15.774Z,73.50
2023-05-03T03:34:04.497Z,74.30
2023-05-03T03:36:53.267Z,74.50
2023-05-03T03:39:41.948Z,73.90
2023-05-03T03:42:32.101Z,74.20
2023-05-03T03:45:20.867Z,74.20
2023-05-03T03:48:09.602Z,75.40
2023-05-03T03:50:58.418Z,74.90
2023-05-03T03:53:47.066Z,75.20
2023-05-03T03:56:35.803Z,75.20
2023-05-03T03:59:26.402Z,75.70
2023-05-03T04:02:15.116Z,76.30
2023-05-03T04:05:04.617Z,76.70
2023-05-03T04:07:53.300Z,76.40
2023-05-03T04:10:42.036Z,75.90
2023-05-03T04:13:30.687Z,75.80
2023-05-03T04:16:20.903Z,76.70
2023-05-03T04:19:09.630Z,78.10
2023-05-03T04:21:58.382Z,78.20
2023-05-03T04:24:48.027Z,78.40
2023-05-03T04:27:38.363Z,78.70
2023-05-03T04:30:27.072Z,78.90
2023-05-03T04:33:17.124Z,78.90
2023-05-03T04:36:06.321Z,78.80
2023-05-03T04:38:54.971Z,78.60
2023-05-03T04:41:43.685Z,78.60
2023-05-03T04:44:32.820Z,78.60
2023-05-03T04:47:21.826Z,77.50
2023-05-03T04:50:12.392Z,77.40
2023-05-03T04:53:01.475Z,76.60
2023-05-03T04:55:50.738Z,74.40
2023-05-03T04:58:39.386Z,74.30
2023-05-03T05:01:28.713Z,73.00
2023-05-03T05:04:17.444Z,72.50
2023-05-03T05:07:07.862Z,70.30
2023-05-03T05:09:56.575Z,69.50
2023-05-03T05:12:45.324Z,69.30
2023-05-03T05:15:34.016Z,68.40
2023-05-03T05:18:22.704Z,67.20
2023-05-03T05:21:11.778Z,67.30
2023-05-03T05:24:02.055Z,67.60
2023-05-03T05:26:51.110Z,67.60
2023-05-03T05:29:39.803Z,66.70
2023-05-03T05:32:28.685Z,66.90
2023-05-03T05:35:19.066Z,65.30
2023-05-03T05:38:07.945Z,64.60
2023-05-03T05:40:58.569Z,64.20
2023-05-03T05:43:47.232Z,63.30
2023-05-03T05:46:35.972Z,58.70
2023-05-03T05:49:24.672Z,47.30
2023-05-03T05:52:13.433Z,42.50
2023-05-03T05:55:02.083Z,38.70
2023-05-03T05:57:52.231Z,37.80
2023-05-03T06:00:41.161Z,36.60
2023-05-03T06:03:30.094Z,33.60
2023-05-03T06:06:18.907Z,35.00
2023-05-03T06:09:20.752Z,34.10
2023-05-03T06:12:13.322Z,32.70
2023-05-03T06:15:03.611Z,35.10
2023-05-03T06:17:52.392Z,33.00
2023-05-03T06:20:41.199Z,29.40
2023-05-03T06:23:29.970Z,28.40
2023-05-03T06:26:18.670Z,25.50
2023-05-03T06:29:07.323Z,19.60
2023-05-03T06:31:57.444Z,21.20
2023-05-03T06:34:46.340Z,14.70
2023-05-03T06:37:35.187Z,10.70
2023-05-03T06:40:25.680Z,15.90
2023-05-03T06:43:14.520Z,13.30
2023-05-03T06:46:03.528Z,13.60
2023-05-03T06:48:56.362Z,8.50
2023-05-03T06:51:45.109Z,7.30
2023-05-03T06:54:33.806Z,8.40
2023-05-03T06:57:22.978Z,10.10
2023-05-03T07:00:12.575Z,8.10
2023-05-03T07:03:01.684Z,6.80
2023-05-03T07:05:52.185Z,6.50
2023-05-03T07:08:40.878Z,4.70
2023-05-03T07:11:29.564Z,6.80
2023-05-03T07:14:18.348Z,5.70
2023-05-03T07:17:07.469Z,4.10
2023-05-03T07:19:56.426Z,2.30
2023-05-03T07:22:46.762Z,2.20
2023-05-03T07:25:35.588Z,3.50
2023-05-03T07:28:24.515Z,2.80
2023-05-03T07:31:13.916Z,4.30
2023-05-03T07:34:02.656Z,5.90
2023-05-03T07:36:52.135Z,2.10
2023-05-03T07:39:43.485Z,1.00
2023-05-03T07:42:33.656Z,1.00
2023-05-03T07:45:23.209Z,1.00
2023-05-03T07:48:11.951Z,1.00
2023-05-03T07:51:00.696Z,1.00
2023-05-03T07:53:49.383Z,1.00
2023-05-03T07:56:39.486Z,1.00
2023-05-03T07:59:28.214Z,1.00
2023-05-03T08:02:29.322Z,1.00
2023-05-03T08:05:30.078Z,1.00
2023-05-03T08:08:43.412Z,1.00
2023-05-03T08:11:46.130Z,1.00
2023-05-03T08:14:42.098Z,1.00
2023-05-03T08:17:31.151Z,1.00
2023-05-03T08:20:21.104Z,1.00
2023-05-03T08:23:11.307Z,1.00
2023-05-03T08:26:00.445Z,1.00
2023-05-03T08:28:49.176Z,1.00
2023-05-03T08:31:39.847Z,1.00
2023-05-03T08:34:28.637Z,1.00
2023-05-03T08:37:17.372Z,1.00
2023-05-03T08:40:07.597Z,1.00
2023-05-03T08:42:57.851Z,1.00
2023-05-03T08:45:46.824Z,1.00
2023-05-03T08:48:37.039Z,1.00
2023-05-03T08:51:27.792Z,1.00
2023-05-03T08:54:18.135Z,1.00
2023-05-03T08:57:11.934Z,1.00
2023-05-03T09:00:02.001Z,1.00
2023-05-03T09:02:51.874Z,1.00
2023-05-03T09:05:44.430Z,1.00
2023-05-03T09:08:43.694Z,1.00
2023-05-03T09:11:33.975Z,1.00
2023-05-03T09:14:22.664Z,1.00
2023-05-03T09:17:21.683Z,1.00
2023-05-03T09:20:11.841Z,1.00
2023-05-03T09:23:02.019Z,1.00
2023-05-03T09:25:52.131Z,1.00
2023-05-03T09:28:44.265Z,1.00
2023-05-03T09:31:34.411Z,1.00
2023-05-03T09:34:23.489Z,1.00
2023-05-03T09:37:14.190Z,1.00
2023-05-03T09:40:24.634Z,1.00
2023-05-03T09:46:12.941Z,1.00
2023-05-03T09:49:01.928Z,1.00
2023-05-03T09:51:50.795Z,1.00
2023-05-03T09:54:39.929Z,1.00
2023-05-03T09:57:31.068Z,1.00
2023-05-03T10:00:20.818Z,1.00
2023-05-03T10:03:11.415Z,1.00
2023-05-03T10:06:04.246Z,1.00
2023-05-03T10:08:57.466Z,1.00
2023-05-03T10:11:51.473Z,1.00
2023-05-03T10:14:43.506Z,1.00
2023-05-03T10:17:48.042Z,1.00
2023-05-03T10:20:41.463Z,1.00
2023-05-03T10:23:30.217Z,1.00
2023-05-03T10:26:18.921Z,1.00
2023-05-03T10:29:08.569Z,1.00
2023-05-03T10:31:58.736Z,1.00
2023-05-03T10:34:47.499Z,1.00
2023-05-03T10:37:38.213Z,1.00
2023-05-03T10:40:43.344Z,1.00
2023-05-03T10:43:46.739Z,1.00
2023-05-03T10:46:36.588Z,1.00
2023-05-03T10:49:27.635Z,1.00
2023-05-03T10:52:47.267Z,1.00
2023-05-03T10:55:36.078Z,1.00
2023-05-03T10:58:24.850Z,1.00
2023-05-03T11:01:16.384Z,1.00
2023-05-03T11:04:11.071Z,1.00
2023-05-03T11:25:41.838Z,1.00
2023-05-03T11:28:30.505Z,1.00
2023-05-03T11:31:19.499Z,1.00
2023-05-03T11:34:08.942Z,1.00
2023-05-03T11:36:59.936Z,1.00
2023-05-03T11:39:48.728Z,1.00
2023-05-03T11:42:52.459Z,1.00
2023-05-03T11:45:44.295Z,1.00
2023-05-03T11:48:33.581Z,1.00
2023-05-03T11:51:23.928Z,1.00
2023-05-03T11:57:14.943Z,1.00
2023-05-03T12:00:17.261Z,1.00
2023-05-03T12:03:06.233Z,1.00
2023-05-03T12:05:55.288Z,1.00
2023-05-03T12:08:45.243Z,1.00
2023-05-03T12:11:44.234Z,1.00
2023-05-03T12:14:58.718Z,1.00
2023-05-03T12:17:50.354Z,1.00
2023-05-03T12:23:34.271Z,1.00
2023-05-03T12:26:23.512Z,1.00
2023-05-03T12:29:12.667Z,1.00
2023-05-03T12:32:03.805Z,1.00
2023-05-03T12:34:57.526Z,1.00
2023-05-03T12:37:49.440Z,1.00
2023-05-03T12:40:39.733Z,1.00
2023-05-03T12:43:28.667Z,1.00
2023-05-03T12:46:33.825Z,1.00
2023-05-03T12:49:24.165Z,1.00
2023-05-03T12:55:11.068Z,1.00
2023-05-03T13:04:04.855Z,1.00
2023-05-03T13:07:00.252Z,1.00
2023-05-03T13:12:42.847Z,1.00
2023-05-03T13:15:31.767Z,1.00
2023-05-03T13:18:20.695Z,1.00
2023-05-03T13:21:09.457Z,1.00
2023-05-03T13:23:58.889Z,1.00
2023-05-03T13:26:49.007Z,1.00
2023-05-03T13:29:37.795Z,1.00
2023-05-03T13:32:26.535Z,1.00
2023-05-03T13:35:15.407Z,1.00
2023-05-03T13:38:04.146Z,1.00
2023-05-03T13:40:53.555Z,1.00
2023-05-03T13:43:43.874Z,1.00
2023-05-03T13:46:32.748Z,1.00
2023-05-03T13:49:21.738Z,1.00
2023-05-03T13:52:10.797Z,1.00
2023-05-03T13:55:00.642Z,1.00
2023-05-03T13:57:49.349Z,1.00
2023-05-03T14:00:39.812Z,1.00
2023-05-03T14:03:28.844Z,1.00
2023-05-03T14:06:17.711Z,1.00
2023-05-03T14:09:06.710Z,1.00
2023-05-03T14:11:57.478Z,1.00
2023-05-03T14:14:46.647Z,1.00
2023-05-03T14:17:36.801Z,1.00
2023-05-03T14:20:25.708Z,1.00
2023-05-03T14:23:14.411Z,1.00
2023-05-03T14:26:05.111Z,1.00
2023-05-03T14:28:53.800Z,1.00
2023-05-03T14:31:42.492Z,1.00
2023-05-03T14:34:32.667Z,1.00
2023-05-03T14:37:21.523Z,1.00
2023-05-03T14:40:11.343Z,1.00
2023-05-03T14:43:00.009Z,1.00
2023-05-03T14:45:49.431Z,1.00
2023-05-03T14:48:45.387Z,1.00
2023-05-03T14:51:35.521Z,1.00
2023-05-03T14:54:24.293Z,1.00
2023-05-03T14:57:12.954Z,1.00
2023-05-03T15:00:03.391Z,1.00
2023-05-03T15:02:56.103Z,1.00
2023-05-03T15:05:46.641Z,1.00
2023-05-03T15:08:36.926Z,1.00
2023-05-03T15:11:25.636Z,1.00
2023-05-03T15:14:14.382Z,1.00
2023-05-03T15:17:03.208Z,1.00
2023-05-03T15:19:52.881Z,1.00
2023-05-03T15:22:41.559Z,1.00
2023-05-03T15:25:31.830Z,1.00
2023-05-03T15:28:21.201Z,1.00
2023-05-03T15:31:11.223Z,1.00
2023-05-03T15:34:02.527Z,1.00
2023-05-03T15:36:51.481Z,1.00
2023-05-03T15:39:40.141Z,1.00
2023-05-03T15:42:30.247Z,1.00
2023-05-03T15:45:19.427Z,1.00
2023-05-03T15:48:08.256Z,1.00
2023-05-03T15:50:56.945Z,1.00
2023-05-03T15:53:45.627Z,1.00
2023-05-03T15:56:34.382Z,1.00
2023-05-03T15:59:24.512Z,1.00
2023-05-03T16:02:13.192Z,1.00
2023-05-03T16:05:01.994Z,1.00
2023-05-03T16:07:51.005Z,1.00
2023-05-03T16:10:39.748Z,1.00
2023-05-03T16:13:28.707Z,1.00
2023-05-03T16:16:18.932Z,1.00
2023-05-03T16:19:08.878Z,1.00
2023-05-03T16:21:57.620Z,1.00
2023-05-03T16:24:46.988Z,1.00
2023-05-03T16:27:35.815Z,1.00
2023-05-03T16:30:24.488Z,1.00
2023-05-03T16:33:14.604Z,1.00
2023-05-03T16:36:03.349Z,1.00
2023-05-03T16:38:52.013Z,1.00
2023-05-03T16:41:41.231Z,1.00
2023-05-03T16:44:30.017Z,1.00
2023-05-03T16:47:18.793Z,1.00
2023-05-03T16:50:10.525Z,1.00
2023-05-03T16:52:59.215Z,1.00
2023-05-03T16:55:47.982Z,1.00
2023-05-03T16:58:36.669Z,1.00
2023-05-03T17:01:25.411Z,1.00
2023-05-03T17:04:15.357Z,1.00
2023-05-03T17:07:05.463Z,1.00
2023-05-03T17:09:54.163Z,1.00
2023-05-03T17:12:42.859Z,1.00
2023-05-03T17:15:32.932Z,1.00
2023-05-03T17:18:21.642Z,1.00
2023-05-03T17:21:10.967Z,1.00
2023-05-03T17:24:01.135Z,1.00
2023-05-03T17:26:49.778Z,1.00
2023-05-03T17:29:38.487Z,1.00
2023-05-03T17:32:27.325Z,1.00
2023-05-03T17:35:16.207Z,1.00
2023-05-03T17:38:05.387Z,1.00
2023-05-03T17:40:55.800Z,1.00
2023-05-03T17:43:44.815Z,1.00
2023-05-03T17:46:35.075Z,1.00
2023-05-03T17:49:24.344Z,1.00
2023-05-03T17:52:13.077Z,1.00
2023-05-03T17:55:02.745Z,1.00
2023-05-03T17:57:52.923Z,1.00
2023-05-03T18:00:41.625Z,1.00
2023-05-03T18:03:31.587Z,1.00
2023-05-03T18:06:20.492Z,1.00
2023-05-03T18:09:09.286Z,1.00
2023-05-03T18:11:59.749Z,1.00
2023-05-03T18:14:50.787Z,1.00
2023-05-03T18:17:39.579Z,1.00
2023-05-03T18:20:28.510Z,1.00
2023-05-03T18:23:17.380Z,1.00
2023-05-03T18:26:07.766Z,1.00
2023-05-03T18:28:56.974Z,1.00
2023-05-03T18:31:47.202Z,1.00
2023-05-03T18:34:37.587Z,1.00
2023-05-03T18:37:26.510Z,1.00
2023-05-03T18:40:16.373Z,1.00
2023-05-03T18:43:05.039Z,1.00
2023-05-03T18:45:53.937Z,1.00
2023-05-03T18:48:44.183Z,1.00
2023-05-03T18:51:32.974Z,1.00
2023-05-03T18:54:21.640Z,1.00
2023-05-03T18:57:11.785Z,1.00
2023-05-03T19:00:01.465Z,1.00
2023-05-03T19:02:50.359Z,1.00
2023-05-03T19:05:40.592Z,1.00
2023-05-03T19:08:29.420Z,1.00
2023-05-03T19:11:18.504Z,1.00
2023-05-03T19:14:07.249Z,1.00
2023-05-03T19:16:56.172Z,1.00
2023-05-03T19:19:45.149Z,1.00
2023-05-03T19:22:35.269Z,1.00
2023-05-03T19:25:24.010Z,1.00
2023-05-03T19:28:12.673Z,1.00
2023-05-03T19:31:04.540Z,1.00
2023-05-03T19:33:53.222Z,1.00
2023-05-03T19:36:41.923Z,1.00
2023-05-03T19:39:35.616Z,1.00
2023-05-03T19:42:24.366Z,1.00
2023-05-03T19:45:13.825Z,1.00
2023-05-03T19:48:02.528Z,1.00
2023-05-03T19:50:51.942Z,1.00
2023-05-03T19:53:40.766Z,1.00
2023-05-03T19:56:31.006Z,1.00
2023-05-03T19:59:19.691Z,1.00
2023-05-03T20:02:08.806Z,1.00
2023-05-03T20:04:57.572Z,1.00
2023-05-03T20:07:47.226Z,1.00
2023-05-03T20:10:37.180Z,1.00
2023-05-03T20:13:27.794Z,1.00
2023-05-03T20:16:18.234Z,1.00
2023-05-03T20:19:08.069Z,1.00
2023-05-03T20:40:20.499Z,1.00
2023-05-03T20:43:10.362Z,1.00
2023-05-03T20:45:59.612Z,1.00
2023-05-03T20:48:48.590Z,1.00
2023-05-03T20:52:22.488Z,1.00
2023-05-03T20:58:45.120Z,1.00
2023-05-03T21:01:48.059Z,1.00
2023-05-03T21:16:16.419Z,1.00
2023-05-03T21:19:33.401Z,1.00
2023-05-03T21:22:27.569Z,1.00
2023-05-03T21:25:22.195Z,1.00
2023-05-03T21:31:54.775Z,1.00
2023-05-03T21:34:54.153Z,1.00
2023-05-03T21:37:49.220Z,1.00
2023-05-03T21:40:42.204Z,1.00
2023-05-03T21:43:33.297Z,1.00
2023-05-03T21:46:24.530Z,1.00
2023-05-03T21:49:23.972Z,1.00
2023-05-03T21:52:15.605Z,1.00
2023-05-03T21:55:04.654Z,1.00
2023-05-03T21:57:53.392Z,1.00
2023-05-03T22:00:44.330Z,1.00
2023-05-03T22:03:33.126Z,1.00
2023-05-03T22:06:23.300Z,1.00
2023-05-03T22:09:12.215Z,1.00
2023-05-03T22:12:05.986Z,1.00
2023-05-03T22:15:00.945Z,1.00
2023-05-03T22:17:49.740Z,1.00
2023-05-03T22:20:38.412Z,1.00
2023-05-03T22:23:28.597Z,1.00
2023-05-03T22:26:17.423Z,1.00
2023-05-03T22:29:06.586Z,1.00
2023-05-03T22:31:55.413Z,1.00
2023-05-03T22:34:45.112Z,1.00
2023-05-03T22:37:33.859Z,1.00
2023-05-03T22:40:24.371Z,1.00
2023-05-03T22:43:13.452Z,1.00
2023-05-03T22:46:03.334Z,1.00
2023-05-03T22:48:52.199Z,1.00
2023-05-03T22:51:40.900Z,1.00
2023-05-03T22:54:29.674Z,1.00
2023-05-03T22:57:19.876Z,1.00
2023-05-03T23:00:11.485Z,1.00
2023-05-03T23:03:00.348Z,1.00
2023-05-03T23:05:49.900Z,1.00
2023-05-03T23:08:38.748Z,1.00
2023-05-03T23:11:27.508Z,1.00
2023-05-03T23:14:17.821Z,1.00
2023-05-03T23:17:06.783Z,1.00
2023-05-03T23:19:55.949Z,1.00
2023-05-03T23:22:45.125Z,1.00
2023-05-03T23:25:34.385Z,1.00
2023-05-03T23:28:24.076Z,1.00
2023-05-03T23:31:14.815Z,1.00
2023-05-03T23:34:05.298Z,1.00
2023-05-03T23:36:53.994Z,1.00
2023-05-03T23:39:45.681Z,1.00
2023-05-03T23:42:34.577Z,1.00
2023-05-03T23:45:23.234Z,1.00
2023-05-03T23:48:13.362Z,1.50
2023-05-03T23:51:02.077Z,2.20
2023-05-03T23:53:50.764Z,2.80
2023-05-03T23:56:39.517Z,3.10
2023-05-03T23:59:28.289Z,3.30
